createdAt,value
2023-04-09T00:03:34.358Z,19.40
2023-04-09T00:06:01.689Z,18.25
2023-04-09T00:08:28.555Z,17.17
2023-04-09T00:10:55.692Z,18.13
2023-04-09T00:13:31.960Z,19.45
2023-04-09T00:16:05.780Z,17.50
2023-04-09T00:18:34.013Z,17.60
2023-04-09T00:21:00.848Z,18.10
2023-04-09T00:25:54.275Z,14.93
2023-04-09T00:30:48.029Z,16.10
2023-04-09T00:33:14.974Z,15.20
2023-04-09T00:35:42.044Z,16.10
2023-04-09T00:38:09.062Z,16.95
2023-04-09T00:40:36.030Z,16.30
2023-04-09T00:43:03.011Z,15.55
2023-04-09T00:45:30.044Z,15.68
2023-04-09T00:50:24.362Z,14.63
2023-04-09T00:52:52.003Z,14.85
2023-04-09T00:55:19.229Z,14.55
2023-04-09T00:57:47.100Z,15.48
2023-04-09T01:00:14.502Z,16.00
2023-04-09T01:02:42.173Z,13.98
2023-04-09T01:05:10.081Z,15.93
2023-04-09T01:07:39.895Z,15.93
2023-04-09T01:10:26.959Z,14.95
2023-04-09T01:13:18.882Z,15.60
2023-04-09T01:15:57.293Z,14.88
2023-04-09T01:18:40.372Z,15.88
2023-04-09T01:21:12.178Z,17.30
2023-04-09T01:24:04.616Z,17.52
2023-04-09T01:26:48.440Z,15.85
2023-04-09T01:29:18.458Z,16.52
2023-04-09T01:31:46.907Z,16.33
2023-04-09T01:34:15.123Z,18.52
2023-04-09T01:36:47.831Z,16.98
2023-04-09T01:39:14.956Z,16.48
2023-04-09T01:41:42.663Z,19.33
2023-04-09T01:44:12.615Z,18.35
2023-04-09T01:46:40.690Z,18.23
2023-04-09T01:49:07.883Z,18.05
2023-04-09T01:51:38.380Z,16.13
2023-04-09T01:54:05.942Z,17.48
2023-04-09T01:56:43.542Z,16.42
2023-04-09T01:59:11.937Z,17.15
2023-04-09T02:01:58.488Z,18.05
2023-04-09T02:04:37.198Z,17.40
2023-04-09T02:07:29.925Z,15.65
2023-04-09T02:10:01.879Z,17.08
2023-04-09T02:12:31.777Z,17.02
2023-04-09T02:15:01.275Z,17.10
2023-04-09T02:17:28.466Z,17.35
2023-04-09T02:19:55.495Z,16.90
2023-04-09T02:22:23.092Z,16.10
2023-04-09T02:24:50.084Z,16.50
2023-04-09T02:27:18.043Z,16.17
2023-04-09T02:29:45.361Z,16.38
2023-04-09T02:32:13.435Z,16.58
2023-04-09T02:34:40.673Z,17.02
2023-04-09T02:37:07.573Z,15.13
2023-04-09T02:39:34.495Z,17.10
2023-04-09T02:42:02.329Z,18.17
2023-04-09T02:44:29.481Z,16.92
2023-04-09T02:46:57.267Z,16.63
2023-04-09T02:49:24.306Z,16.90
2023-04-09T02:51:51.610Z,16.38
2023-04-09T02:54:18.934Z,16.35
2023-04-09T02:56:45.841Z,17.33
2023-04-09T03:01:39.933Z,15.95
2023-04-09T03:04:07.301Z,15.68
2023-04-09T03:06:39.141Z,16.63
2023-04-09T03:09:06.624Z,17.27
2023-04-09T03:11:37.333Z,17.63
2023-04-09T03:14:05.401Z,17.60
2023-04-09T03:16:32.609Z,17.65
2023-04-09T03:21:35.258Z,15.77
2023-04-09T03:24:02.819Z,17.13
2023-04-09T03:26:36.264Z,16.40
2023-04-09T03:29:06.540Z,17.23
2023-04-09T03:31:34.355Z,15.52
2023-04-09T03:34:01.166Z,15.55
2023-04-09T03:36:34.501Z,16.85
2023-04-09T03:39:03.398Z,16.23
2023-04-09T03:41:39.486Z,16.90
2023-04-09T03:44:11.176Z,15.40
2023-04-09T03:46:52.492Z,16.13
2023-04-09T03:49:19.939Z,16.67
2023-04-09T03:51:46.699Z,16.88
2023-04-09T03:56:41.482Z,15.35
2023-04-09T03:59:11.716Z,14.50
2023-04-09T04:01:41.575Z,15.77
2023-04-09T04:04:09.218Z,16.15
2023-04-09T04:06:41.361Z,16.90
2023-04-09T04:09:26.506Z,15.95
2023-04-09T04:12:02.453Z,15.77
2023-04-09T04:14:47.903Z,16.98
2023-04-09T04:17:35.567Z,16.00
2023-04-09T04:20:06.467Z,16.52
2023-04-09T04:22:39.421Z,16.38
2023-04-09T04:25:07.018Z,15.10
2023-04-09T04:27:34.082Z,15.93
2023-04-09T04:30:02.484Z,16.67
2023-04-09T04:32:40.600Z,16.77
2023-04-09T04:35:11.356Z,17.58
2023-04-09T04:37:40.607Z,14.82
2023-04-09T04:40:13.771Z,16.38
2023-04-09T04:42:42.764Z,17.65
2023-04-09T04:45:14.205Z,16.25
2023-04-09T04:47:46.426Z,15.15
2023-04-09T04:50:15.511Z,18.38
2023-04-09T04:53:02.965Z,17.55
2023-04-09T04:55:42.242Z,17.95
2023-04-09T04:58:15.340Z,16.08
2023-04-09T05:00:47.906Z,16.60
2023-04-09T05:03:15.389Z,18.75
2023-04-09T05:05:59.903Z,16.10
2023-04-09T05:08:32.055Z,18.75
2023-04-09T05:10:59.112Z,18.95
2023-04-09T05:13:36.396Z,18.15
2023-04-09T05:16:07.394Z,16.88
2023-04-09T05:18:37.350Z,16.70
2023-04-09T05:21:04.694Z,18.42
2023-04-09T05:23:34.599Z,17.25
2023-04-09T05:26:01.579Z,17.83
2023-04-09T05:28:59.055Z,16.85
2023-04-09T05:31:26.961Z,16.95
2023-04-09T05:33:59.384Z,17.30
2023-04-09T05:36:37.896Z,19.83
2023-04-09T05:39:05.119Z,19.50
2023-04-09T05:41:34.526Z,21.67
2023-04-09T05:44:37.088Z,21.95
2023-04-09T05:47:10.787Z,20.38
2023-04-09T05:50:01.104Z,17.35
2023-04-09T05:52:28.738Z,17.75
2023-04-09T05:54:56.379Z,17.05
2023-04-09T05:57:31.877Z,16.70
2023-04-09T06:00:02.470Z,16.48
2023-04-09T06:02:31.972Z,15.70
2023-04-09T06:05:00.561Z,17.58
2023-04-09T06:07:27.685Z,18.27
2023-04-09T06:09:56.487Z,18.17
2023-04-09T06:12:23.402Z,18.23
2023-04-09T06:14:50.443Z,17.13
2023-04-09T06:17:17.508Z,17.30
2023-04-09T06:19:44.459Z,18.25
2023-04-09T06:24:39.440Z,16.92
2023-04-09T06:27:08.110Z,17.75
2023-04-09T06:29:35.098Z,18.13
2023-04-09T06:32:02.069Z,20.15
2023-04-09T06:34:28.957Z,19.63
2023-04-09T06:36:56.646Z,21.02
2023-04-09T06:39:23.711Z,19.95
2023-04-09T06:41:50.893Z,18.45
2023-04-09T06:44:34.746Z,17.63
2023-04-09T06:47:02.625Z,17.02
2023-04-09T06:49:29.587Z,18.35
2023-04-09T06:51:56.438Z,17.58
2023-04-09T06:54:23.104Z,15.95
2023-04-09T06:59:16.996Z,16.13
2023-04-09T07:01:44.069Z,16.65
2023-04-09T07:04:16.522Z,16.88
2023-04-09T07:06:44.107Z,15.82
2023-04-09T07:09:13.132Z,15.63
2023-04-09T07:11:40.536Z,16.20
2023-04-09T07:14:07.943Z,16.10
2023-04-09T07:16:35.127Z,15.48
2023-04-09T07:19:03.823Z,16.08
2023-04-09T07:21:32.657Z,15.88
2023-04-09T07:23:59.650Z,16.23
2023-04-09T07:26:29.414Z,18.05
2023-04-09T07:28:56.271Z,17.73
2023-04-09T07:31:23.480Z,16.00
2023-04-09T07:33:54.157Z,17.38
2023-04-09T07:36:21.645Z,18.33
2023-04-09T07:38:48.920Z,15.73
2023-04-09T07:41:16.425Z,15.25
2023-04-09T07:43:44.283Z,15.23
2023-04-09T07:46:11.959Z,15.98
2023-04-09T07:48:40.428Z,16.25
2023-04-09T07:51:08.802Z,15.70
2023-04-09T07:53:35.984Z,17.95
2023-04-09T07:56:03.373Z,16.00
2023-04-09T07:58:31.034Z,17.50
2023-04-09T08:00:59.974Z,17.05
2023-04-09T08:03:27.717Z,18.23
2023-04-09T08:05:54.909Z,16.80
2023-04-09T08:08:22.551Z,18.17
2023-04-09T08:10:49.337Z,13.63
2023-04-09T08:13:16.522Z,16.83
2023-04-09T08:15:43.660Z,16.73
2023-04-09T08:18:10.663Z,17.10
2023-04-09T08:20:38.196Z,15.38
2023-04-09T08:23:05.013Z,16.33
2023-04-09T08:25:32.398Z,16.85
2023-04-09T08:27:59.270Z,15.43
2023-04-09T08:30:26.292Z,16.13
2023-04-09T08:32:54.207Z,16.52
2023-04-09T08:35:21.203Z,17.23
2023-04-09T08:37:49.037Z,17.92
2023-04-09T08:40:15.998Z,14.90
2023-04-09T08:42:48.623Z,15.35
2023-04-09T08:47:45.680Z,14.05
2023-04-09T08:50:14.522Z,15.18
2023-04-09T08:52:42.774Z,15.13
2023-04-09T08:55:12.048Z,15.73
2023-04-09T08:57:40.092Z,15.38
2023-04-09T09:00:09.945Z,15.32
2023-04-09T09:02:39.430Z,16.40
2023-04-09T09:05:09.141Z,15.95
2023-04-09T09:07:39.065Z,14.40
2023-04-09T09:10:07.270Z,16.52
2023-04-09T09:12:42.017Z,19.75
2023-04-09T09:15:28.801Z,17.55
2023-04-09T09:18:00.952Z,16.38
2023-04-09T09:20:28.034Z,16.52
2023-04-09T09:22:57.034Z,17.35
2023-04-09T09:25:25.699Z,18.02
2023-04-09T09:27:54.261Z,16.25
2023-04-09T09:30:22.525Z,15.95
2023-04-09T09:33:07.144Z,15.05
2023-04-09T09:36:09.477Z,14.10
2023-04-09T09:38:55.279Z,14.48
2023-04-09T09:41:23.405Z,14.25
2023-04-09T09:43:50.903Z,15.95
2023-04-09T09:46:17.820Z,15.88
2023-04-09T09:48:47.996Z,15.27
2023-04-09T09:51:15.544Z,14.43
2023-04-09T09:53:46.608Z,15.73
2023-04-09T09:56:18.557Z,15.85
2023-04-09T09:59:04.332Z,15.25
2023-04-09T10:01:31.420Z,15.00
2023-04-09T10:04:01.530Z,14.63
2023-04-09T10:06:30.216Z,14.38
2023-04-09T10:08:58.366Z,14.80
2023-04-09T10:11:25.878Z,14.60
2023-04-09T10:13:59.700Z,16.02
2023-04-09T10:16:28.156Z,16.52
2023-04-09T10:18:59.895Z,15.95
2023-04-09T10:21:47.729Z,16.27
2023-04-09T10:24:16.086Z,16.50
2023-04-09T10:26:45.152Z,16.52
2023-04-09T10:29:14.695Z,16.42
2023-04-09T10:32:06.807Z,16.05
2023-04-09T10:34:42.837Z,16.48
2023-04-09T10:37:15.130Z,14.93
2023-04-09T10:42:25.658Z,14.63
2023-04-09T10:45:16.952Z,15.75
2023-04-09T10:47:44.262Z,15.10
2023-04-09T10:50:33.312Z,16.30
2023-04-09T10:53:00.987Z,15.13
2023-04-09T10:55:38.406Z,14.10
2023-04-09T10:58:13.628Z,15.27
2023-04-09T11:00:46.079Z,15.23
2023-04-09T11:03:31.369Z,15.25
2023-04-09T11:06:06.103Z,14.90
2023-04-09T11:08:34.215Z,15.93
2023-04-09T11:11:02.310Z,16.70
2023-04-09T11:13:31.097Z,14.65
2023-04-09T11:16:00.274Z,14.30
2023-04-09T11:18:30.758Z,13.70
2023-04-09T11:21:02.350Z,15.95
2023-04-09T11:23:29.454Z,16.10
2023-04-09T11:25:56.577Z,15.70
2023-04-09T11:28:24.130Z,14.68
2023-04-09T11:30:52.078Z,14.93
2023-04-09T11:33:20.200Z,14.23
2023-04-09T11:35:48.338Z,14.35
2023-04-09T11:38:15.685Z,14.88
2023-04-09T11:40:48.083Z,14.35
2023-04-09T11:43:16.884Z,15.00
2023-04-09T11:45:44.935Z,13.98
2023-04-09T11:48:13.214Z,15.43
2023-04-09T11:50:40.740Z,14.32
2023-04-09T11:53:21.625Z,13.95
2023-04-09T11:55:51.461Z,13.35
2023-04-09T11:58:18.724Z,13.65
2023-04-09T12:00:45.794Z,15.02
2023-04-09T12:03:13.598Z,14.35
2023-04-09T12:05:50.811Z,14.85
2023-04-09T12:08:23.824Z,14.15
2023-04-09T12:10:53.655Z,13.73
2023-04-09T12:13:21.609Z,14.00
2023-04-09T12:15:50.121Z,14.77
2023-04-09T12:18:16.920Z,14.70
2023-04-09T12:20:46.608Z,14.60
2023-04-09T12:23:13.855Z,16.08
2023-04-09T12:25:42.972Z,15.02
2023-04-09T12:28:13.023Z,14.00
2023-04-09T12:30:40.707Z,14.70
2023-04-09T12:33:10.206Z,15.25
2023-04-09T12:35:39.557Z,12.40
2023-04-09T12:38:07.382Z,14.02
2023-04-09T12:40:35.652Z,13.80
2023-04-09T12:43:03.162Z,12.93
2023-04-09T12:45:30.539Z,12.52
2023-04-09T12:47:58.361Z,10.77
2023-04-09T12:50:26.008Z,11.73
2023-04-09T12:52:54.065Z,11.18
2023-04-09T12:55:22.216Z,11.05
2023-04-09T12:57:50.901Z,10.80
2023-04-09T13:00:18.652Z,11.05
2023-04-09T13:02:45.837Z,10.05
2023-04-09T13:05:13.484Z,11.48
2023-04-09T13:07:43.233Z,10.48
2023-04-09T13:10:11.499Z,10.48
2023-04-09T13:12:38.786Z,10.00
2023-04-09T13:15:06.862Z,11.00
2023-04-09T13:17:33.913Z,10.43
2023-04-09T13:20:01.722Z,10.43
2023-04-09T13:22:28.863Z,9.68
2023-04-09T13:24:55.795Z,10.88
2023-04-09T13:27:23.010Z,10.77
2023-04-09T13:29:50.841Z,10.85
2023-04-09T13:32:19.007Z,10.70
2023-04-09T13:34:46.728Z,11.40
2023-04-09T13:37:14.066Z,10.18
2023-04-09T13:39:41.086Z,10.02
2023-04-09T13:42:13.562Z,10.55
2023-04-09T13:44:44.772Z,10.82
2023-04-09T13:47:13.641Z,10.52
2023-04-09T13:49:43.916Z,10.75
2023-04-09T13:52:11.976Z,10.38
2023-04-09T13:54:38.798Z,10.18
2023-04-09T13:57:08.685Z,12.02
2023-04-09T13:59:36.589Z,11.25
2023-04-09T14:02:04.233Z,10.43
2023-04-09T14:04:31.683Z,10.70
2023-04-09T14:06:58.477Z,11.07
2023-04-09T14:09:25.574Z,10.23
2023-04-09T14:11:54.334Z,10.63
2023-04-09T14:14:21.570Z,11.40
2023-04-09T14:16:48.597Z,11.18
2023-04-09T14:19:15.862Z,11.93
2023-04-09T14:21:42.740Z,11.85
2023-04-09T14:24:09.847Z,11.60
2023-04-09T14:26:37.643Z,12.55
2023-04-09T14:29:04.579Z,11.57
2023-04-09T14:31:31.710Z,13.10
2023-04-09T14:33:58.762Z,11.75
2023-04-09T14:36:27.474Z,11.65
2023-04-09T14:38:56.240Z,12.23
2023-04-09T14:41:24.811Z,12.90
2023-04-09T14:43:51.530Z,12.20
2023-04-09T14:46:18.277Z,11.93
2023-04-09T14:48:45.993Z,12.00
2023-04-09T14:51:13.190Z,11.50
2023-04-09T14:53:40.060Z,12.38
2023-04-09T14:56:07.274Z,13.00
2023-04-09T14:58:34.205Z,13.18
2023-04-09T15:01:01.214Z,13.07
2023-04-09T15:03:28.470Z,12.32
2023-04-09T15:05:55.750Z,13.40
2023-04-09T15:08:23.715Z,13.43
2023-04-09T15:10:51.288Z,13.27
2023-04-09T15:13:18.124Z,13.65
2023-04-09T15:15:45.428Z,13.02
2023-04-09T15:18:13.030Z,14.98
2023-04-09T15:20:41.850Z,14.10
2023-04-09T15:23:09.782Z,12.65
2023-04-09T15:25:37.555Z,13.55
2023-04-09T15:28:06.240Z,12.95
2023-04-09T15:30:33.432Z,13.68
2023-04-09T15:33:01.643Z,14.82
2023-04-09T15:35:29.499Z,14.23
2023-04-09T15:37:57.282Z,12.63
2023-04-09T15:40:24.484Z,13.48
2023-04-09T15:42:51.522Z,13.50
2023-04-09T15:45:18.599Z,13.63
2023-04-09T15:47:46.167Z,12.70
2023-04-09T15:50:22.682Z,12.93
2023-04-09T15:52:50.622Z,13.02
2023-04-09T15:55:17.776Z,12.90
2023-04-09T15:57:47.337Z,13.88
2023-04-09T16:00:15.703Z,12.77
2023-04-09T16:02:47.399Z,13.48
2023-04-09T16:05:15.644Z,13.18
2023-04-09T16:07:42.968Z,14.55
2023-04-09T16:10:11.181Z,13.80
2023-04-09T16:12:38.440Z,14.00
2023-04-09T16:15:06.065Z,16.70
2023-04-09T16:17:40.295Z,15.82
2023-04-09T16:20:08.553Z,13.80
2023-04-09T16:22:45.033Z,14.73
2023-04-09T16:25:12.944Z,14.02
2023-04-09T16:27:40.915Z,16.63
2023-04-09T16:30:08.088Z,15.57
2023-04-09T16:32:35.006Z,15.68
2023-04-09T16:35:02.471Z,16.48
2023-04-09T16:37:31.236Z,15.73
2023-04-09T16:39:58.141Z,14.38
2023-04-09T16:42:27.704Z,14.50
2023-04-09T16:44:54.843Z,12.27
2023-04-09T16:47:22.392Z,12.38
2023-04-09T16:49:49.136Z,13.93
2023-04-09T16:52:16.461Z,12.45
2023-04-09T16:54:43.419Z,11.85
2023-04-09T16:57:10.362Z,12.48
2023-04-09T16:59:37.605Z,12.75
2023-04-09T17:02:04.779Z,12.63
2023-04-09T17:04:34.350Z,12.68
2023-04-09T17:07:01.731Z,12.77
2023-04-09T17:09:28.566Z,12.02
2023-04-09T17:11:56.638Z,12.88
2023-04-09T17:14:23.954Z,12.98
2023-04-09T17:16:53.130Z,13.90
2023-04-09T17:19:20.102Z,13.48
2023-04-09T17:21:47.027Z,13.65
2023-04-09T17:24:13.941Z,12.82
2023-04-09T17:26:40.836Z,16.70
2023-04-09T17:29:07.752Z,15.80
2023-04-09T17:31:34.680Z,15.75
2023-04-09T17:34:02.213Z,17.13
2023-04-09T17:36:29.385Z,16.02
2023-04-09T17:38:56.740Z,15.73
2023-04-09T17:41:24.404Z,15.45
2023-04-09T17:43:51.576Z,16.27
2023-04-09T17:46:18.516Z,16.38
2023-04-09T17:48:45.538Z,17.60
2023-04-09T17:51:19.662Z,18.90
2023-04-09T17:53:47.493Z,17.60
2023-04-09T17:56:16.886Z,16.73
2023-04-09T17:58:44.400Z,15.70
2023-04-09T18:01:13.633Z,12.10
2023-04-09T18:03:42.718Z,10.13
2023-04-09T18:06:10.041Z,10.32
2023-04-09T18:08:37.763Z,9.88
2023-04-09T18:11:12.618Z,11.10
2023-04-09T18:13:40.447Z,10.82
2023-04-09T18:16:12.380Z,9.75
2023-04-09T18:18:39.563Z,9.52
2023-04-09T18:21:07.202Z,10.35
2023-04-09T18:23:34.752Z,8.40
2023-04-09T18:26:03.140Z,9.07
2023-04-09T18:28:30.309Z,9.05
2023-04-09T18:30:57.848Z,9.00
2023-04-09T18:33:25.919Z,9.73
2023-04-09T18:35:53.203Z,9.70
2023-04-09T18:38:21.887Z,9.43
2023-04-09T18:40:48.717Z,9.73
2023-04-09T18:43:15.605Z,10.27
2023-04-09T18:45:42.604Z,12.38
2023-04-09T18:48:10.005Z,11.98
2023-04-09T18:50:37.128Z,13.73
2023-04-09T18:53:06.068Z,15.38
2023-04-09T18:55:37.861Z,14.70
2023-04-09T18:58:08.755Z,14.00
2023-04-09T19:00:36.289Z,15.10
2023-04-09T19:03:03.415Z,14.98
2023-04-09T19:05:31.852Z,18.30
2023-04-09T19:08:03.271Z,17.42
2023-04-09T19:10:30.340Z,17.42
2023-04-09T19:12:57.088Z,16.05
2023-04-09T19:15:26.405Z,14.88
2023-04-09T19:17:53.826Z,12.10
2023-04-09T19:20:22.144Z,11.30
2023-04-09T19:22:50.412Z,10.48
2023-04-09T19:25:18.474Z,11.57
2023-04-09T19:27:45.721Z,11.68
2023-04-09T19:30:13.252Z,11.55
2023-04-09T19:32:41.781Z,12.18
2023-04-09T19:35:08.842Z,11.50
2023-04-09T19:37:36.173Z,11.90
2023-04-09T19:40:04.699Z,11.70
2023-04-09T19:42:35.330Z,12.35
2023-04-09T19:45:02.521Z,12.93
2023-04-09T19:47:29.757Z,12.48
2023-04-09T19:49:56.570Z,12.90
2023-04-09T19:52:23.563Z,12.85
2023-04-09T19:54:54.791Z,12.80
2023-04-09T19:57:22.085Z,13.43
2023-04-09T19:59:49.969Z,13.20
2023-04-09T20:02:17.298Z,12.75
2023-04-09T20:04:48.017Z,12.15
2023-04-09T20:07:15.702Z,12.15
2023-04-09T20:09:43.610Z,15.05
2023-04-09T20:12:10.777Z,15.00
2023-04-09T20:14:40.853Z,15.30
2023-04-09T20:17:09.790Z,13.70
2023-04-09T20:19:37.947Z,12.93
2023-04-09T20:22:05.019Z,13.52
2023-04-09T20:24:32.355Z,15.77
2023-04-09T20:26:59.690Z,17.38
2023-04-09T20:29:26.690Z,22.65
2023-04-09T20:31:53.696Z,19.42
2023-04-09T20:34:26.597Z,17.00
2023-04-09T20:36:54.821Z,15.57
2023-04-09T20:39:22.351Z,15.77
2023-04-09T20:41:49.384Z,14.57
2023-04-09T20:44:16.689Z,14.95
2023-04-09T20:46:43.519Z,15.90
2023-04-09T20:49:11.206Z,19.13
2023-04-09T20:51:38.624Z,17.55
2023-04-09T20:54:05.605Z,14.73
2023-04-09T20:56:32.830Z,17.33
2023-04-09T20:59:00.164Z,16.80
2023-04-09T21:01:27.776Z,17.52
2023-04-09T21:03:55.040Z,17.10
2023-04-09T21:06:22.692Z,18.27
2023-04-09T21:08:49.750Z,17.75
2023-04-09T21:11:16.759Z,19.77
2023-04-09T21:13:53.592Z,17.67
2023-04-09T21:16:21.868Z,17.10
2023-04-09T21:18:49.037Z,16.08
2023-04-09T21:21:16.072Z,15.70
2023-04-09T21:23:43.497Z,14.57
2023-04-09T21:26:11.526Z,15.10
2023-04-09T21:28:39.278Z,14.50
2023-04-09T21:31:06.518Z,12.95
2023-04-09T21:33:33.813Z,13.13
2023-04-09T21:36:01.591Z,15.13
2023-04-09T21:38:28.412Z,13.63
2023-04-09T21:40:55.468Z,13.50
2023-04-09T21:43:22.229Z,15.13
2023-04-09T21:45:49.199Z,16.48
2023-04-09T21:48:16.200Z,16.15
2023-04-09T21:50:42.962Z,17.08
2023-04-09T21:53:09.800Z,17.60
2023-04-09T21:55:37.206Z,17.25
2023-04-09T21:58:03.994Z,16.02
2023-04-09T22:00:31.358Z,17.05
2023-04-09T22:03:02.148Z,16.10
2023-04-09T22:05:29.740Z,17.45
2023-04-09T22:07:56.497Z,17.33
2023-04-09T22:10:23.487Z,16.17
2023-04-09T22:12:50.658Z,16.20
2023-04-09T22:15:17.562Z,15.95
2023-04-09T22:17:44.471Z,15.77
2023-04-09T22:20:11.424Z,14.77
2023-04-09T22:22:38.579Z,16.42
2023-04-09T22:25:07.080Z,17.52
2023-04-09T22:27:34.196Z,17.70
2023-04-09T22:30:01.033Z,16.77
2023-04-09T22:32:28.887Z,16.75
2023-04-09T22:34:55.690Z,16.30
2023-04-09T22:37:22.407Z,15.55
2023-04-09T22:39:49.268Z,16.55
2023-04-09T22:42:16.187Z,15.23
2023-04-09T22:44:42.880Z,16.90
2023-04-09T22:47:09.556Z,17.35
2023-04-09T22:49:36.517Z,16.40
2023-04-09T22:52:03.310Z,16.17
2023-04-09T22:54:30.170Z,17.95
2023-04-09T22:56:57.872Z,17.27
2023-04-09T22:59:30.475Z,16.33
2023-04-09T23:02:06.050Z,16.33
2023-04-09T23:04:34.190Z,16.92
2023-04-09T23:07:01.106Z,16.73
2023-04-09T23:09:28.035Z,14.98
2023-04-09T23:11:54.790Z,16.02
2023-04-09T23:14:21.563Z,16.00
2023-04-09T23:19:15.010Z,16.20
2023-04-09T23:21:41.724Z,17.02
2023-04-09T23:24:08.846Z,18.17
2023-04-09T23:26:35.635Z,17.63
2023-04-09T23:29:02.413Z,17.42
2023-04-09T23:31:29.154Z,18.38
2023-04-09T23:33:56.270Z,19.40
2023-04-09T23:36:24.355Z,19.55
2023-04-09T23:38:51.447Z,18.48
2023-04-09T23:41:18.146Z,19.38
2023-04-09T23:43:44.860Z,19.15
2023-04-09T23:48:38.262Z,18.73
2023-04-09T23:51:05.285Z,19.67
2023-04-09T23:53:32.082Z,19.65
2023-04-09T23:55:58.798Z,20.48
2023-04-09T23:58:25.546Z,19.17
